VLG7574 LEBL-GBYD
Flight info
| Callsign | VLG7574 |
|---|---|
| Flight time | N/A |
| Altitude | 33000 |
| Route | LOTOS DCT TORDU DCT DIKUT DCT SOPET DCT VLC DCT BEGOX DCT NARGO DCT RESTU DCT DOSEK DCT AMR N860 BERUM UG850 FES UM372 DIDOV DCT ECHED UR975 ZRT DCT MINBA DCT SEPEL UR975 ANITI |
| Aircraft | A321/M-SDE3FGHIRWY/LB1 |
Departure
| Time | N/A |
|---|---|
| Airport | Josep Tarradellas Barcelona-El Prat Airport (LEBL) |
Arrival
| Time | 2026-04-26 14:57 |
|---|---|
| Airport | Banjul International Airport (GBYD) |
| Time | Latitude | Longitude | Altitude | Speed | Heading |
|---|---|---|---|---|---|
| 2026-04-26 10:57 | 37.03061 | -2.12857 | 33156 ft | 468 kts | 208° |
| 2026-04-26 10:57 | 37.00182 | -2.14765 | 33150 ft | 467 kts | 208° |
| 2026-04-26 10:58 | 36.94470 | -2.18551 | 33142 ft | 467 kts | 208° |
| 2026-04-26 10:58 | 36.88717 | -2.22359 | 33126 ft | 468 kts | 208° |
| 2026-04-26 10:59 | 36.83032 | -2.26317 | 33119 ft | 467 kts | 216° |
| 2026-04-26 10:59 | 36.77956 | -2.31345 | 33119 ft | 465 kts | 219° |
| 2026-04-26 11:00 | 36.72917 | -2.36413 | 33129 ft | 465 kts | 219° |
| 2026-04-26 11:00 | 36.67870 | -2.41456 | 33122 ft | 465 kts | 219° |
| 2026-04-26 11:01 | 36.62850 | -2.46467 | 33131 ft | 465 kts | 220° |
| 2026-04-26 11:01 | 36.57810 | -2.51505 | 33139 ft | 464 kts | 220° |
| 2026-04-26 11:02 | 36.52771 | -2.56540 | 33143 ft | 465 kts | 220° |
| 2026-04-26 11:02 | 36.47730 | -2.61568 | 33136 ft | 465 kts | 219° |
| 2026-04-26 11:03 | 36.42651 | -2.66550 | 33141 ft | 464 kts | 219° |
| 2026-04-26 11:03 | 36.37533 | -2.71419 | 33149 ft | 462 kts | 218° |
| 2026-04-26 11:04 | 36.32433 | -2.76252 | 33151 ft | 460 kts | 218° |
| 2026-04-26 11:04 | 36.27399 | -2.81056 | 33147 ft | 459 kts | 219° |
| 2026-04-26 11:05 | 36.22353 | -2.85890 | 33145 ft | 458 kts | 219° |
| 2026-04-26 11:05 | 36.17327 | -2.90710 | 33148 ft | 455 kts | 219° |
| 2026-04-26 11:06 | 36.12371 | -2.95530 | 33146 ft | 452 kts | 219° |
| 2026-04-26 11:06 | 36.07441 | -3.00327 | 33143 ft | 450 kts | 219° |
| 2026-04-26 11:07 | 36.02521 | -3.05090 | 33142 ft | 449 kts | 219° |
| 2026-04-26 11:07 | 35.97609 | -3.09836 | 33122 ft | 448 kts | 219° |
| 2026-04-26 11:08 | 35.92687 | -3.14584 | 33119 ft | 449 kts | 219° |
| 2026-04-26 11:08 | 35.87764 | -3.19315 | 33117 ft | 449 kts | 219° |
| 2026-04-26 11:09 | 35.82834 | -3.24053 | 33117 ft | 449 kts | 219° |
| 2026-04-26 11:09 | 35.77884 | -3.28747 | 33114 ft | 449 kts | 219° |
| 2026-04-26 11:10 | 35.72910 | -3.33407 | 33117 ft | 449 kts | 219° |
| 2026-04-26 11:10 | 35.67968 | -3.38035 | 33109 ft | 449 kts | 219° |
| 2026-04-26 11:11 | 35.62999 | -3.42693 | 33114 ft | 449 kts | 219° |
| 2026-04-26 11:11 | 35.58026 | -3.47343 | 33095 ft | 449 kts | 219° |
| 2026-04-26 11:12 | 35.53044 | -3.52000 | 33089 ft | 451 kts | 219° |
| 2026-04-26 11:12 | 35.48046 | -3.56662 | 33092 ft | 451 kts | 219° |
| 2026-04-26 11:13 | 35.43042 | -3.61328 | 33090 ft | 452 kts | 219° |
| 2026-04-26 11:13 | 35.38033 | -3.65984 | 33096 ft | 452 kts | 219° |
| 2026-04-26 11:14 | 35.33042 | -3.70615 | 33097 ft | 452 kts | 219° |
| 2026-04-26 11:14 | 35.28838 | -3.74513 | 33093 ft | 452 kts | 219° |
| 2026-04-26 11:15 | 35.23010 | -3.79915 | 33098 ft | 452 kts | 220° |
| 2026-04-26 11:15 | 35.17989 | -3.84554 | 33070 ft | 452 kts | 220° |
| 2026-04-26 11:16 | 35.13007 | -3.89254 | 33079 ft | 451 kts | 220° |
| 2026-04-26 11:16 | 35.08101 | -3.93963 | 33088 ft | 451 kts | 221° |
| 2026-04-26 11:17 | 35.03160 | -3.98702 | 33081 ft | 451 kts | 220° |
| 2026-04-26 11:17 | 34.98207 | -4.03403 | 33088 ft | 451 kts | 220° |
| 2026-04-26 11:18 | 34.93254 | -4.08080 | 33074 ft | 450 kts | 220° |
| 2026-04-26 11:18 | 34.88305 | -4.12748 | 33077 ft | 449 kts | 221° |
| 2026-04-26 11:19 | 34.83370 | -4.17405 | 33067 ft | 448 kts | 221° |
| 2026-04-26 11:19 | 34.78483 | -4.22015 | 33078 ft | 447 kts | 221° |
| 2026-04-26 11:20 | 34.74370 | -4.25888 | 33061 ft | 446 kts | 221° |
| 2026-04-26 11:20 | 34.68661 | -4.31262 | 33060 ft | 446 kts | 221° |
| 2026-04-26 11:21 | 34.63748 | -4.35872 | 33041 ft | 446 kts | 221° |
| 2026-04-26 11:21 | 34.58841 | -4.40469 | 33052 ft | 445 kts | 221° |
| 2026-04-26 11:22 | 34.53941 | -4.45057 | 33023 ft | 444 kts | 220° |
| 2026-04-26 11:22 | 34.49050 | -4.49621 | 33028 ft | 443 kts | 220° |
| 2026-04-26 11:23 | 34.44160 | -4.54182 | 33015 ft | 443 kts | 220° |
| 2026-04-26 11:23 | 34.39276 | -4.58739 | 32994 ft | 443 kts | 220° |
| 2026-04-26 11:24 | 34.34385 | -4.63273 | 32984 ft | 443 kts | 220° |
| 2026-04-26 11:24 | 34.29472 | -4.67781 | 32993 ft | 443 kts | 220° |
| 2026-04-26 11:25 | 34.24596 | -4.72248 | 32992 ft | 443 kts | 220° |
| 2026-04-26 11:25 | 34.19688 | -4.76742 | 32993 ft | 442 kts | 220° |
| 2026-04-26 11:26 | 34.14782 | -4.81232 | 32998 ft | 442 kts | 220° |
| 2026-04-26 11:26 | 34.09882 | -4.85724 | 32993 ft | 442 kts | 219° |
| 2026-04-26 11:27 | 34.04983 | -4.90200 | 33001 ft | 442 kts | 219° |
| 2026-04-26 11:27 | 34.00080 | -4.94674 | 33007 ft | 442 kts | 219° |
| 2026-04-26 11:28 | 33.95176 | -4.99145 | 32997 ft | 442 kts | 219° |
| 2026-04-26 11:28 | 33.90252 | -5.03592 | 32998 ft | 443 kts | 218° |
| 2026-04-26 11:29 | 33.85249 | -5.07917 | 33000 ft | 443 kts | 217° |
| 2026-04-26 11:29 | 33.80253 | -5.12187 | 32991 ft | 443 kts | 217° |
| 2026-04-26 11:30 | 33.76055 | -5.15806 | 32995 ft | 443 kts | 217° |
| 2026-04-26 11:30 | 33.70237 | -5.20849 | 32989 ft | 443 kts | 217° |
| 2026-04-26 11:31 | 33.65234 | -5.25180 | 33003 ft | 443 kts | 217° |
| 2026-04-26 11:31 | 33.61070 | -5.28764 | 32998 ft | 443 kts | 217° |
| 2026-04-26 11:32 | 33.56056 | -5.33075 | 32995 ft | 443 kts | 217° |
| 2026-04-26 11:32 | 33.50247 | -5.38074 | 32978 ft | 442 kts | 216° |
| 2026-04-26 11:33 | 33.46052 | -5.41672 | 32976 ft | 442 kts | 216° |
| 2026-04-26 11:33 | 33.41037 | -5.45955 | 32976 ft | 443 kts | 216° |
| 2026-04-26 11:34 | 33.36053 | -5.50207 | 32967 ft | 443 kts | 216° |
| 2026-04-26 11:34 | 33.31031 | -5.54490 | 32969 ft | 443 kts | 216° |
| 2026-04-26 11:35 | 33.26016 | -5.58761 | 32978 ft | 443 kts | 216° |
| 2026-04-26 11:35 | 33.20996 | -5.63037 | 32981 ft | 443 kts | 216° |
| 2026-04-26 11:36 | 33.15971 | -5.67312 | 32971 ft | 443 kts | 216° |
| 2026-04-26 11:36 | 33.10983 | -5.71542 | 32968 ft | 443 kts | 216° |
| 2026-04-26 11:37 | 33.05948 | -5.75794 | 32960 ft | 443 kts | 216° |
| 2026-04-26 11:37 | 33.00917 | -5.80050 | 32962 ft | 443 kts | 215° |
| 2026-04-26 11:38 | 32.95885 | -5.84311 | 32956 ft | 444 kts | 215° |
| 2026-04-26 11:38 | 32.90844 | -5.88565 | 32963 ft | 444 kts | 215° |
| 2026-04-26 11:39 | 32.85797 | -5.92811 | 32963 ft | 444 kts | 215° |
| 2026-04-26 11:39 | 32.80748 | -5.97064 | 32954 ft | 444 kts | 215° |
| 2026-04-26 11:40 | 32.75695 | -6.01305 | 32963 ft | 445 kts | 215° |
| 2026-04-26 11:40 | 32.70740 | -6.05613 | 32965 ft | 444 kts | 218° |
| 2026-04-26 11:42 | 32.51445 | -6.24062 | 32956 ft | 446 kts | 218° |
| 2026-04-26 11:43 | 32.46582 | -6.28621 | 32954 ft | 446 kts | 218° |
| 2026-04-26 11:43 | 32.41725 | -6.33185 | 32957 ft | 445 kts | 218° |
| 2026-04-26 11:44 | 32.36873 | -6.37736 | 32961 ft | 445 kts | 218° |
| 2026-04-26 11:44 | 32.32017 | -6.42283 | 32972 ft | 445 kts | 217° |
| 2026-04-26 11:45 | 32.27165 | -6.46821 | 32976 ft | 445 kts | 217° |
| 2026-04-26 11:45 | 32.22312 | -6.51359 | 32979 ft | 445 kts | 217° |
| 2026-04-26 11:46 | 32.17455 | -6.55888 | 32962 ft | 445 kts | 218° |
| 2026-04-26 11:46 | 32.12636 | -6.60382 | 32976 ft | 444 kts | 217° |
| 2026-04-26 11:47 | 32.07783 | -6.64898 | 32989 ft | 444 kts | 217° |
| 2026-04-26 11:47 | 32.02938 | -6.69399 | 32974 ft | 443 kts | 217° |
| 2026-04-26 11:48 | 31.98090 | -6.73892 | 32990 ft | 443 kts | 217° |
| 2026-04-26 11:48 | 31.93251 | -6.78372 | 32991 ft | 443 kts | 217° |
| 2026-04-26 11:49 | 31.88407 | -6.82850 | 33010 ft | 442 kts | 218° |
| 2026-04-26 11:49 | 31.83569 | -6.87320 | 32997 ft | 441 kts | 218° |
| 2026-04-26 11:50 | 31.78765 | -6.91753 | 32995 ft | 441 kts | 218° |
| 2026-04-26 11:50 | 31.73936 | -6.96210 | 33011 ft | 440 kts | 218° |
| 2026-04-26 11:51 | 31.69094 | -7.00661 | 32999 ft | 441 kts | 218° |
| 2026-04-26 11:51 | 31.64288 | -7.05070 | 33019 ft | 441 kts | 218° |
| 2026-04-26 11:52 | 31.59452 | -7.09521 | 33025 ft | 441 kts | 218° |
| 2026-04-26 11:52 | 31.54615 | -7.13956 | 33031 ft | 440 kts | 218° |
| 2026-04-26 11:53 | 31.49812 | -7.18351 | 33027 ft | 439 kts | 218° |
| 2026-04-26 11:54 | 31.42616 | -7.24911 | 33036 ft | 437 kts | 218° |
| 2026-04-26 11:54 | 31.37810 | -7.29291 | 33034 ft | 437 kts | 218° |
| 2026-04-26 11:55 | 31.33034 | -7.33651 | 33033 ft | 437 kts | 218° |
| 2026-04-26 11:55 | 31.28235 | -7.38021 | 33048 ft | 436 kts | 219° |
| 2026-04-26 11:56 | 31.23438 | -7.42382 | 33047 ft | 435 kts | 219° |
| 2026-04-26 11:56 | 31.18686 | -7.46685 | 33053 ft | 434 kts | 219° |
| 2026-04-26 11:57 | 31.13905 | -7.51013 | 33052 ft | 434 kts | 219° |
| 2026-04-26 11:57 | 31.09133 | -7.55336 | 33051 ft | 433 kts | 219° |
| 2026-04-26 11:58 | 31.04383 | -7.59627 | 33060 ft | 433 kts | 219° |
| 2026-04-26 11:58 | 30.99613 | -7.63934 | 33050 ft | 432 kts | 220° |
| 2026-04-26 11:59 | 30.94854 | -7.68217 | 33049 ft | 430 kts | 220° |
| 2026-04-26 11:59 | 30.90143 | -7.72452 | 33048 ft | 429 kts | 220° |
| 2026-04-26 12:00 | 30.85399 | -7.76721 | 33046 ft | 429 kts | 220° |
| 2026-04-26 12:00 | 30.80704 | -7.80944 | 33035 ft | 428 kts | 220° |
| 2026-04-26 12:01 | 30.75980 | -7.85183 | 33035 ft | 428 kts | 220° |
| 2026-04-26 12:01 | 30.71290 | -7.89385 | 33005 ft | 427 kts | 220° |
| 2026-04-26 12:02 | 30.66560 | -7.93609 | 32981 ft | 426 kts | 220° |
| 2026-04-26 12:02 | 30.61881 | -7.97790 | 32985 ft | 426 kts | 220° |
| 2026-04-26 12:03 | 30.57187 | -8.01988 | 32984 ft | 425 kts | 220° |
| 2026-04-26 12:03 | 30.52512 | -8.06145 | 32951 ft | 424 kts | 220° |
| 2026-04-26 12:04 | 30.47823 | -8.10315 | 32937 ft | 424 kts | 220° |
| 2026-04-26 12:04 | 30.43164 | -8.14469 | 32933 ft | 424 kts | 220° |
| 2026-04-26 12:05 | 30.38471 | -8.18645 | 32931 ft | 424 kts | 220° |
| 2026-04-26 12:05 | 30.33804 | -8.22776 | 32916 ft | 424 kts | 220° |
| 2026-04-26 12:06 | 30.29101 | -8.26930 | 32920 ft | 424 kts | 220° |
| 2026-04-26 12:06 | 30.24420 | -8.31069 | 32928 ft | 424 kts | 220° |
| 2026-04-26 12:07 | 30.19744 | -8.35202 | 32915 ft | 424 kts | 220° |
| 2026-04-26 12:07 | 30.15050 | -8.39346 | 32914 ft | 424 kts | 219° |
| 2026-04-26 12:08 | 30.10359 | -8.43484 | 32923 ft | 424 kts | 220° |
| 2026-04-26 12:08 | 30.05693 | -8.47590 | 32936 ft | 423 kts | 220° |
| 2026-04-26 12:09 | 30.01015 | -8.51698 | 32930 ft | 422 kts | 220° |
| 2026-04-26 12:09 | 29.96338 | -8.55799 | 32934 ft | 422 kts | 220° |
| 2026-04-26 12:10 | 29.91667 | -8.59898 | 32934 ft | 422 kts | 220° |
| 2026-04-26 12:10 | 29.86997 | -8.63995 | 32929 ft | 421 kts | 220° |
| 2026-04-26 12:11 | 29.82328 | -8.68075 | 32901 ft | 421 kts | 220° |
| 2026-04-26 12:11 | 29.77671 | -8.72143 | 32919 ft | 420 kts | 220° |
| 2026-04-26 12:12 | 29.73024 | -8.76196 | 32918 ft | 418 kts | 220° |
| 2026-04-26 12:12 | 29.68421 | -8.80212 | 32908 ft | 418 kts | 220° |
| 2026-04-26 12:13 | 29.63788 | -8.84246 | 32897 ft | 417 kts | 220° |
| 2026-04-26 12:13 | 29.59159 | -8.88269 | 32896 ft | 417 kts | 220° |
| 2026-04-26 12:14 | 29.54526 | -8.92296 | 32896 ft | 417 kts | 220° |
| 2026-04-26 12:14 | 29.49889 | -8.96320 | 32871 ft | 417 kts | 220° |
| 2026-04-26 12:15 | 29.45253 | -9.00335 | 32880 ft | 417 kts | 220° |
| 2026-04-26 12:15 | 29.40622 | -9.04343 | 32884 ft | 417 kts | 220° |
| 2026-04-26 12:16 | 29.36028 | -9.08322 | 32877 ft | 416 kts | 220° |
| 2026-04-26 12:16 | 29.31405 | -9.12319 | 32886 ft | 416 kts | 220° |
| 2026-04-26 12:17 | 29.26779 | -9.16311 | 32876 ft | 416 kts | 220° |
| 2026-04-26 12:17 | 29.22145 | -9.20297 | 32868 ft | 416 kts | 220° |
| 2026-04-26 12:18 | 29.17542 | -9.24250 | 32873 ft | 416 kts | 220° |
| 2026-04-26 12:18 | 29.12924 | -9.28225 | 32869 ft | 415 kts | 220° |
| 2026-04-26 12:19 | 29.08306 | -9.32193 | 32870 ft | 415 kts | 220° |
| 2026-04-26 12:19 | 29.04432 | -9.35509 | 32871 ft | 415 kts | 220° |
| 2026-04-26 12:20 | 28.99061 | -9.40114 | 32876 ft | 415 kts | 220° |
| 2026-04-26 12:20 | 28.94443 | -9.44067 | 32877 ft | 415 kts | 220° |
| 2026-04-26 12:21 | 28.90595 | -9.47354 | 32861 ft | 415 kts | 219° |
| 2026-04-26 12:21 | 28.85972 | -9.51303 | 32867 ft | 415 kts | 219° |
| 2026-04-26 12:22 | 28.81341 | -9.55244 | 32877 ft | 415 kts | 219° |
| 2026-04-26 12:22 | 28.76719 | -9.59186 | 32879 ft | 415 kts | 219° |
| 2026-04-26 12:23 | 28.72123 | -9.63102 | 32882 ft | 415 kts | 219° |
| 2026-04-26 12:23 | 28.67493 | -9.67031 | 32880 ft | 415 kts | 219° |
| 2026-04-26 12:24 | 28.62862 | -9.70959 | 32893 ft | 415 kts | 219° |
| 2026-04-26 12:24 | 28.58236 | -9.74883 | 32877 ft | 415 kts | 219° |
| 2026-04-26 12:25 | 28.51286 | -9.80775 | 32885 ft | 415 kts | 219° |
| 2026-04-26 12:25 | 28.46657 | -9.84690 | 32896 ft | 415 kts | 219° |
| 2026-04-26 12:26 | 28.42048 | -9.88581 | 32891 ft | 414 kts | 219° |
| 2026-04-26 12:26 | 28.37421 | -9.92487 | 32894 ft | 414 kts | 219° |
| 2026-04-26 12:27 | 28.32801 | -9.96382 | 32889 ft | 413 kts | 219° |
| 2026-04-26 12:27 | 28.28183 | -10.00276 | 32872 ft | 413 kts | 219° |
| 2026-04-26 12:28 | 28.23561 | -10.04159 | 32883 ft | 413 kts | 219° |
| 2026-04-26 12:28 | 28.18934 | -10.08036 | 32895 ft | 413 kts | 219° |
| 2026-04-26 12:29 | 28.14311 | -10.11913 | 32897 ft | 413 kts | 219° |
| 2026-04-26 12:30 | 28.07381 | -10.17728 | 32898 ft | 413 kts | 219° |
| 2026-04-26 12:30 | 28.02753 | -10.21610 | 32938 ft | 416 kts | 219° |
| 2026-04-26 12:31 | 27.98114 | -10.25488 | 33396 ft | 418 kts | 219° |
| 2026-04-26 12:31 | 27.95773 | -10.27440 | 33702 ft | 417 kts | 219° |
| 2026-04-26 12:31 | 27.93409 | -10.29412 | 34001 ft | 416 kts | 219° |
| 2026-04-26 12:31 | 27.91115 | -10.31328 | 34261 ft | 416 kts | 219° |
| 2026-04-26 12:32 | 27.88788 | -10.33269 | 34520 ft | 415 kts | 219° |
| 2026-04-26 12:32 | 27.86464 | -10.35203 | 34776 ft | 414 kts | 219° |
| 2026-04-26 12:32 | 27.81826 | -10.39057 | 34891 ft | 413 kts | 219° |
| 2026-04-26 12:33 | 27.79509 | -10.40981 | 34888 ft | 413 kts | 219° |
| 2026-04-26 12:33 | 27.74885 | -10.44825 | 34898 ft | 413 kts | 219° |
| 2026-04-26 12:34 | 27.70263 | -10.48667 | 34899 ft | 413 kts | 219° |
| 2026-04-26 12:34 | 27.65423 | -10.52181 | 34886 ft | 417 kts | 207° |
| 2026-04-26 12:35 | 27.59988 | -10.54541 | 34896 ft | 419 kts | 205° |
| 2026-04-26 12:35 | 27.54576 | -10.56869 | 34902 ft | 419 kts | 205° |
| 2026-04-26 12:36 | 27.49133 | -10.59213 | 34916 ft | 419 kts | 205° |
| 2026-04-26 12:36 | 27.43693 | -10.61553 | 34916 ft | 419 kts | 205° |
| 2026-04-26 12:37 | 27.38242 | -10.63895 | 34919 ft | 419 kts | 205° |
| 2026-04-26 12:37 | 27.32797 | -10.66226 | 34918 ft | 419 kts | 205° |
| 2026-04-26 12:38 | 27.27356 | -10.68561 | 34919 ft | 418 kts | 205° |
| 2026-04-26 12:38 | 27.21916 | -10.70889 | 34918 ft | 418 kts | 205° |
| 2026-04-26 12:39 | 27.16474 | -10.73214 | 34919 ft | 418 kts | 205° |
| 2026-04-26 12:39 | 27.11032 | -10.75540 | 34919 ft | 418 kts | 205° |
| 2026-04-26 12:40 | 27.05593 | -10.77867 | 34911 ft | 418 kts | 205° |
| 2026-04-26 12:40 | 27.00155 | -10.80189 | 34920 ft | 418 kts | 205° |
| 2026-04-26 12:41 | 26.94724 | -10.82504 | 34918 ft | 417 kts | 205° |
| 2026-04-26 12:41 | 26.89295 | -10.84813 | 34927 ft | 417 kts | 205° |
| 2026-04-26 12:42 | 26.83865 | -10.87122 | 34930 ft | 417 kts | 205° |
| 2026-04-26 12:42 | 26.78437 | -10.89423 | 34938 ft | 417 kts | 205° |
| 2026-04-26 12:43 | 26.73015 | -10.91720 | 34921 ft | 417 kts | 205° |
| 2026-04-26 12:43 | 26.67630 | -10.93999 | 34935 ft | 416 kts | 205° |
| 2026-04-26 12:44 | 26.62215 | -10.96286 | 34939 ft | 416 kts | 205° |
| 2026-04-26 12:44 | 26.56804 | -10.98573 | 34938 ft | 416 kts | 205° |
| 2026-04-26 12:45 | 26.51396 | -11.00862 | 34944 ft | 416 kts | 205° |
| 2026-04-26 12:45 | 26.45990 | -11.03145 | 34954 ft | 416 kts | 205° |
| 2026-04-26 12:46 | 26.40581 | -11.05423 | 34935 ft | 415 kts | 205° |
| 2026-04-26 12:46 | 26.35171 | -11.07700 | 34945 ft | 415 kts | 205° |
| 2026-04-26 12:47 | 26.29771 | -11.09975 | 34957 ft | 415 kts | 205° |
| 2026-04-26 12:47 | 26.24364 | -11.12249 | 34955 ft | 415 kts | 205° |
| 2026-04-26 12:48 | 26.18946 | -11.14524 | 34958 ft | 415 kts | 205° |
| 2026-04-26 12:48 | 26.13584 | -11.16773 | 34968 ft | 415 kts | 205° |
| 2026-04-26 12:49 | 26.08179 | -11.19041 | 34955 ft | 415 kts | 205° |
| 2026-04-26 12:49 | 26.02779 | -11.21297 | 34965 ft | 414 kts | 205° |
| 2026-04-26 12:50 | 25.97385 | -11.23552 | 34974 ft | 414 kts | 205° |
| 2026-04-26 12:50 | 25.91985 | -11.25812 | 34964 ft | 414 kts | 205° |
| 2026-04-26 12:51 | 25.86588 | -11.28060 | 34975 ft | 414 kts | 205° |
| 2026-04-26 12:51 | 25.81196 | -11.30310 | 34948 ft | 414 kts | 205° |
| 2026-04-26 12:52 | 25.75836 | -11.32544 | 34975 ft | 414 kts | 205° |
| 2026-04-26 12:52 | 25.70443 | -11.34787 | 34974 ft | 414 kts | 205° |
| 2026-04-26 12:53 | 25.65039 | -11.37035 | 34972 ft | 414 kts | 205° |
| 2026-04-26 12:53 | 25.59642 | -11.39281 | 34973 ft | 414 kts | 205° |
| 2026-04-26 12:54 | 25.54238 | -11.41526 | 34974 ft | 415 kts | 205° |
| 2026-04-26 12:54 | 25.48831 | -11.43769 | 34957 ft | 414 kts | 205° |
| 2026-04-26 12:55 | 25.43430 | -11.46008 | 34970 ft | 414 kts | 205° |
| 2026-04-26 12:55 | 25.38069 | -11.48226 | 34976 ft | 414 kts | 205° |
| 2026-04-26 12:56 | 25.32674 | -11.50455 | 34976 ft | 414 kts | 205° |
| 2026-04-26 12:56 | 25.27281 | -11.52683 | 34977 ft | 414 kts | 205° |
| 2026-04-26 12:57 | 25.21893 | -11.54916 | 34978 ft | 414 kts | 205° |
| 2026-04-26 12:57 | 25.16462 | -11.57049 | 34959 ft | 414 kts | 204° |
| 2026-04-26 12:58 | 25.08275 | -11.60080 | 34973 ft | 413 kts | 204° |
| 2026-04-26 12:58 | 25.02830 | -11.62117 | 34978 ft | 413 kts | 204° |
| 2026-04-26 12:59 | 24.97399 | -11.64163 | 34978 ft | 412 kts | 204° |
| 2026-04-26 12:59 | 24.91973 | -11.66215 | 34976 ft | 412 kts | 204° |
| 2026-04-26 13:00 | 24.86539 | -11.68257 | 34955 ft | 412 kts | 204° |
| 2026-04-26 13:00 | 24.81114 | -11.70296 | 34971 ft | 411 kts | 204° |
| 2026-04-26 13:01 | 24.75733 | -11.72325 | 34973 ft | 411 kts | 204° |
| 2026-04-26 13:01 | 24.70321 | -11.74356 | 34974 ft | 411 kts | 204° |
| 2026-04-26 13:02 | 24.64911 | -11.76384 | 34974 ft | 410 kts | 204° |
| 2026-04-26 13:02 | 24.59504 | -11.78409 | 34975 ft | 410 kts | 204° |
| 2026-04-26 13:03 | 24.54096 | -11.80429 | 34958 ft | 410 kts | 204° |
| 2026-04-26 13:03 | 24.48691 | -11.82460 | 34972 ft | 410 kts | 204° |
| 2026-04-26 13:04 | 24.43288 | -11.84479 | 34975 ft | 410 kts | 204° |
| 2026-04-26 13:04 | 24.37926 | -11.86470 | 34977 ft | 409 kts | 204° |
| 2026-04-26 13:05 | 24.32540 | -11.88487 | 34980 ft | 409 kts | 204° |
| 2026-04-26 13:05 | 24.27159 | -11.90497 | 34983 ft | 408 kts | 204° |
| 2026-04-26 13:06 | 24.21778 | -11.92496 | 34976 ft | 408 kts | 204° |
| 2026-04-26 13:06 | 24.16398 | -11.94493 | 34971 ft | 408 kts | 204° |
| 2026-04-26 13:07 | 24.11934 | -11.96153 | 34967 ft | 408 kts | 204° |
| 2026-04-26 13:07 | 24.05651 | -11.98481 | 34974 ft | 408 kts | 204° |
| 2026-04-26 13:08 | 24.00313 | -12.00468 | 34966 ft | 407 kts | 204° |
| 2026-04-26 13:08 | 23.94947 | -12.02461 | 34962 ft | 407 kts | 204° |
| 2026-04-26 13:09 | 23.89579 | -12.04446 | 34962 ft | 407 kts | 204° |
| 2026-04-26 13:09 | 23.85117 | -12.06097 | 34966 ft | 407 kts | 204° |
| 2026-04-26 13:10 | 23.79753 | -12.08082 | 34975 ft | 407 kts | 204° |
| 2026-04-26 13:10 | 23.74380 | -12.10062 | 34968 ft | 407 kts | 204° |
| 2026-04-26 13:11 | 23.69020 | -12.12049 | 34974 ft | 407 kts | 204° |
| 2026-04-26 13:11 | 23.63645 | -12.14035 | 34971 ft | 407 kts | 204° |
| 2026-04-26 13:12 | 23.58294 | -12.16004 | 34939 ft | 407 kts | 205° |
| 2026-04-26 13:12 | 23.52932 | -12.17975 | 34965 ft | 406 kts | 205° |
| 2026-04-26 13:13 | 23.47599 | -12.19940 | 34977 ft | 405 kts | 205° |
| 2026-04-26 13:13 | 23.42250 | -12.21907 | 34980 ft | 404 kts | 205° |
| 2026-04-26 13:14 | 23.36912 | -12.23861 | 34978 ft | 404 kts | 205° |
| 2026-04-26 13:14 | 23.31596 | -12.25813 | 34978 ft | 404 kts | 205° |
| 2026-04-26 13:15 | 23.26267 | -12.27767 | 34946 ft | 403 kts | 205° |
| 2026-04-26 13:15 | 23.20971 | -12.29703 | 34961 ft | 403 kts | 205° |
| 2026-04-26 13:16 | 23.15650 | -12.31649 | 34970 ft | 402 kts | 205° |
| 2026-04-26 13:16 | 23.10372 | -12.33584 | 34975 ft | 402 kts | 205° |
| 2026-04-26 13:17 | 23.02410 | -12.36494 | 34973 ft | 402 kts | 205° |
| 2026-04-26 13:18 | 22.94482 | -12.39385 | 34971 ft | 402 kts | 205° |
| 2026-04-26 13:19 | 22.86530 | -12.42283 | 34964 ft | 401 kts | 205° |
| 2026-04-26 13:19 | 22.81242 | -12.44208 | 34965 ft | 401 kts | 205° |
| 2026-04-26 13:20 | 22.75956 | -12.46150 | 34962 ft | 398 kts | 209° |
| 2026-04-26 13:20 | 22.70968 | -12.48681 | 34964 ft | 395 kts | 212° |
| 2026-04-26 13:21 | 22.66024 | -12.51222 | 34958 ft | 396 kts | 211° |
| 2026-04-26 13:21 | 22.61038 | -12.53771 | 34933 ft | 396 kts | 211° |
| 2026-04-26 13:22 | 22.56059 | -12.56319 | 34943 ft | 396 kts | 212° |
| 2026-04-26 13:22 | 22.51089 | -12.58871 | 34952 ft | 395 kts | 212° |
| 2026-04-26 13:23 | 22.46123 | -12.61419 | 34953 ft | 394 kts | 212° |
| 2026-04-26 13:23 | 22.41160 | -12.63956 | 34953 ft | 394 kts | 212° |
| 2026-04-26 13:24 | 22.36200 | -12.66493 | 34952 ft | 394 kts | 212° |
| 2026-04-26 13:24 | 22.31248 | -12.69022 | 34955 ft | 394 kts | 212° |
| 2026-04-26 13:25 | 22.26309 | -12.71537 | 34916 ft | 394 kts | 212° |
| 2026-04-26 13:25 | 22.21352 | -12.74068 | 34932 ft | 394 kts | 212° |
| 2026-04-26 13:26 | 22.16397 | -12.76595 | 34943 ft | 394 kts | 212° |
| 2026-04-26 13:26 | 22.11435 | -12.79124 | 34953 ft | 394 kts | 212° |
| 2026-04-26 13:27 | 22.06479 | -12.81650 | 34949 ft | 394 kts | 212° |
| 2026-04-26 13:27 | 22.01518 | -12.84175 | 34948 ft | 394 kts | 212° |
| 2026-04-26 13:28 | 21.96549 | -12.86695 | 34947 ft | 394 kts | 212° |
| 2026-04-26 13:28 | 21.91582 | -12.89217 | 34909 ft | 394 kts | 212° |
| 2026-04-26 13:29 | 21.86616 | -12.91741 | 34920 ft | 395 kts | 212° |
| 2026-04-26 13:29 | 21.81639 | -12.94263 | 34932 ft | 395 kts | 212° |
| 2026-04-26 13:30 | 21.76695 | -12.96766 | 34934 ft | 395 kts | 212° |
| 2026-04-26 13:30 | 21.71723 | -12.99283 | 34941 ft | 395 kts | 212° |
| 2026-04-26 13:31 | 21.66747 | -13.01800 | 34942 ft | 395 kts | 212° |
| 2026-04-26 13:31 | 21.61770 | -13.04320 | 34942 ft | 395 kts | 212° |
| 2026-04-26 13:32 | 21.56790 | -13.06831 | 34910 ft | 395 kts | 212° |
| 2026-04-26 13:32 | 21.51804 | -13.09338 | 34917 ft | 396 kts | 212° |
| 2026-04-26 13:33 | 21.46820 | -13.11854 | 34928 ft | 396 kts | 213° |
| 2026-04-26 13:33 | 21.41834 | -13.14375 | 34930 ft | 396 kts | 213° |
| 2026-04-26 13:34 | 21.36881 | -13.16875 | 34929 ft | 396 kts | 212° |
| 2026-04-26 13:34 | 21.31887 | -13.19376 | 34934 ft | 396 kts | 212° |
| 2026-04-26 13:35 | 21.26887 | -13.21870 | 34913 ft | 396 kts | 213° |
| 2026-04-26 13:35 | 21.21897 | -13.24386 | 34914 ft | 396 kts | 213° |
| 2026-04-26 13:36 | 21.16901 | -13.26886 | 34919 ft | 396 kts | 213° |
| 2026-04-26 13:36 | 21.11908 | -13.29393 | 34923 ft | 396 kts | 213° |
| 2026-04-26 13:37 | 21.06911 | -13.31898 | 34924 ft | 396 kts | 213° |
| 2026-04-26 13:37 | 21.01916 | -13.34401 | 34926 ft | 396 kts | 213° |
| 2026-04-26 13:38 | 20.96919 | -13.36904 | 34919 ft | 396 kts | 213° |
| 2026-04-26 13:38 | 20.91961 | -13.39400 | 34919 ft | 396 kts | 213° |
| 2026-04-26 13:39 | 20.86965 | -13.41889 | 34918 ft | 396 kts | 213° |
| 2026-04-26 13:39 | 20.81971 | -13.44374 | 34917 ft | 396 kts | 213° |
| 2026-04-26 13:40 | 20.76974 | -13.46862 | 34911 ft | 396 kts | 213° |
| 2026-04-26 13:40 | 20.71977 | -13.49347 | 34909 ft | 396 kts | 213° |
| 2026-04-26 13:41 | 20.66984 | -13.51836 | 34910 ft | 396 kts | 213° |
| 2026-04-26 13:41 | 20.61998 | -13.54332 | 34909 ft | 396 kts | 213° |
| 2026-04-26 13:42 | 20.57001 | -13.56821 | 34877 ft | 396 kts | 213° |
| 2026-04-26 13:42 | 20.52000 | -13.59302 | 34886 ft | 396 kts | 213° |
| 2026-04-26 13:43 | 20.46996 | -13.61796 | 34893 ft | 397 kts | 213° |
| 2026-04-26 13:43 | 20.42022 | -13.64266 | 34893 ft | 396 kts | 213° |
| 2026-04-26 13:44 | 20.37021 | -13.66748 | 34895 ft | 396 kts | 213° |
| 2026-04-26 13:44 | 20.32023 | -13.69224 | 34893 ft | 396 kts | 213° |
| 2026-04-26 13:45 | 20.27025 | -13.71699 | 34893 ft | 396 kts | 213° |
| 2026-04-26 13:45 | 20.22024 | -13.74177 | 34857 ft | 396 kts | 213° |
| 2026-04-26 13:46 | 20.17016 | -13.76658 | 34862 ft | 397 kts | 213° |
| 2026-04-26 13:46 | 20.11995 | -13.79131 | 34874 ft | 398 kts | 213° |
| 2026-04-26 13:47 | 20.06971 | -13.81608 | 34883 ft | 398 kts | 213° |
| 2026-04-26 13:47 | 20.01947 | -13.84085 | 34884 ft | 398 kts | 213° |
| 2026-04-26 13:48 | 19.96924 | -13.86571 | 34883 ft | 398 kts | 214° |
| 2026-04-26 13:48 | 19.91898 | -13.89050 | 34845 ft | 398 kts | 214° |
| 2026-04-26 13:49 | 19.86868 | -13.91527 | 34849 ft | 399 kts | 213° |
| 2026-04-26 13:49 | 19.81822 | -13.94010 | 34862 ft | 400 kts | 213° |
| 2026-04-26 13:50 | 19.76772 | -13.96496 | 34866 ft | 400 kts | 213° |
| 2026-04-26 13:50 | 19.71854 | -13.99125 | 34869 ft | 396 kts | 218° |
| 2026-04-26 13:51 | 19.67119 | -14.02060 | 34871 ft | 394 kts | 219° |
| 2026-04-26 13:51 | 19.62405 | -14.05031 | 34867 ft | 394 kts | 218° |
| 2026-04-26 13:52 | 19.57650 | -14.07949 | 34828 ft | 395 kts | 218° |
| 2026-04-26 13:52 | 19.52866 | -14.10825 | 34836 ft | 396 kts | 218° |
| 2026-04-26 13:53 | 19.48067 | -14.13721 | 34838 ft | 397 kts | 218° |
| 2026-04-26 13:53 | 19.43295 | -14.16611 | 34847 ft | 398 kts | 218° |
| 2026-04-26 13:54 | 19.38482 | -14.19513 | 34856 ft | 398 kts | 218° |
| 2026-04-26 13:54 | 19.33672 | -14.22418 | 34863 ft | 398 kts | 218° |
| 2026-04-26 13:55 | 19.27244 | -14.26292 | 34874 ft | 399 kts | 218° |
| 2026-04-26 13:56 | 19.19185 | -14.31149 | 34834 ft | 400 kts | 218° |
| 2026-04-26 13:56 | 19.14341 | -14.34071 | 34841 ft | 401 kts | 218° |
| 2026-04-26 13:57 | 19.10304 | -14.36496 | 34842 ft | 402 kts | 218° |
| 2026-04-26 13:57 | 19.05437 | -14.39422 | 34853 ft | 402 kts | 218° |
| 2026-04-26 13:58 | 19.00562 | -14.42354 | 34859 ft | 403 kts | 218° |
| 2026-04-26 13:58 | 18.95720 | -14.45265 | 34866 ft | 403 kts | 218° |
| 2026-04-26 13:59 | 18.90845 | -14.48190 | 34867 ft | 403 kts | 218° |
| 2026-04-26 13:59 | 18.85968 | -14.51112 | 34846 ft | 403 kts | 217° |
| 2026-04-26 14:00 | 18.76234 | -14.56916 | 34835 ft | 399 kts | 217° |
| 2026-04-26 14:01 | 18.71403 | -14.59820 | 34832 ft | 400 kts | 218° |
| 2026-04-26 14:01 | 18.66549 | -14.62745 | 34836 ft | 403 kts | 218° |
| 2026-04-26 14:02 | 18.61658 | -14.65661 | 34841 ft | 405 kts | 217° |
| 2026-04-26 14:02 | 18.56743 | -14.68582 | 34850 ft | 406 kts | 217° |
| 2026-04-26 14:03 | 18.51824 | -14.71515 | 34828 ft | 406 kts | 217° |
| 2026-04-26 14:03 | 18.46930 | -14.74433 | 34839 ft | 407 kts | 217° |
| 2026-04-26 14:04 | 18.41990 | -14.77369 | 34847 ft | 408 kts | 217° |
| 2026-04-26 14:04 | 18.37046 | -14.80315 | 34869 ft | 408 kts | 217° |
| 2026-04-26 14:05 | 18.32109 | -14.83259 | 34875 ft | 408 kts | 217° |
| 2026-04-26 14:05 | 18.27163 | -14.86199 | 34878 ft | 408 kts | 217° |
| 2026-04-26 14:06 | 18.22214 | -14.89139 | 34878 ft | 408 kts | 217° |
| 2026-04-26 14:06 | 18.17301 | -14.92066 | 34846 ft | 408 kts | 217° |
| 2026-04-26 14:07 | 18.12350 | -14.95008 | 34854 ft | 409 kts | 217° |
| 2026-04-26 14:07 | 18.07389 | -14.97948 | 34858 ft | 410 kts | 217° |
| 2026-04-26 14:08 | 18.02416 | -15.00891 | 34863 ft | 410 kts | 217° |
| 2026-04-26 14:08 | 17.97436 | -15.03841 | 34875 ft | 411 kts | 217° |
| 2026-04-26 14:09 | 17.92459 | -15.06786 | 34879 ft | 411 kts | 217° |
| 2026-04-26 14:09 | 17.87481 | -15.09734 | 34882 ft | 411 kts | 217° |
| 2026-04-26 14:10 | 17.82564 | -15.12773 | 34853 ft | 405 kts | 223° |
| 2026-04-26 14:10 | 17.77997 | -15.16235 | 34850 ft | 406 kts | 222° |
| 2026-04-26 14:11 | 17.71146 | -15.21420 | 34864 ft | 407 kts | 222° |
| 2026-04-26 14:11 | 17.66543 | -15.24891 | 34874 ft | 407 kts | 222° |
| 2026-04-26 14:12 | 17.61937 | -15.28356 | 34879 ft | 407 kts | 222° |
| 2026-04-26 14:12 | 17.57332 | -15.31835 | 34882 ft | 407 kts | 222° |
| 2026-04-26 14:13 | 17.50433 | -15.37047 | 34888 ft | 408 kts | 222° |
| 2026-04-26 14:14 | 17.45855 | -15.40493 | 34890 ft | 408 kts | 222° |
| 2026-04-26 14:14 | 17.41251 | -15.43959 | 34890 ft | 408 kts | 222° |
| 2026-04-26 14:15 | 17.36643 | -15.47431 | 34890 ft | 408 kts | 222° |
| 2026-04-26 14:15 | 17.32011 | -15.50922 | 34882 ft | 416 kts | 222° |
| 2026-04-26 14:16 | 17.27275 | -15.54496 | 34877 ft | 422 kts | 222° |
| 2026-04-26 14:16 | 17.22502 | -15.58079 | 34878 ft | 423 kts | 222° |
| 2026-04-26 14:17 | 17.17714 | -15.61656 | 34876 ft | 423 kts | 222° |
| 2026-04-26 14:17 | 17.12937 | -15.65241 | 34883 ft | 423 kts | 222° |
| 2026-04-26 14:18 | 17.08159 | -15.68839 | 34858 ft | 424 kts | 221° |
| 2026-04-26 14:18 | 17.03350 | -15.72445 | 34866 ft | 426 kts | 221° |
| 2026-04-26 14:19 | 16.98548 | -15.76034 | 34876 ft | 427 kts | 221° |
| 2026-04-26 14:19 | 16.93716 | -15.79651 | 34897 ft | 427 kts | 221° |
| 2026-04-26 14:20 | 16.88842 | -15.83229 | 34905 ft | 428 kts | 221° |
| 2026-04-26 14:20 | 16.84023 | -15.86880 | 34909 ft | 427 kts | 222° |
| 2026-04-26 14:21 | 16.79198 | -15.90529 | 34909 ft | 428 kts | 221° |
| 2026-04-26 14:21 | 16.74356 | -15.94153 | 34901 ft | 428 kts | 221° |
| 2026-04-26 14:22 | 16.69526 | -15.97747 | 34901 ft | 430 kts | 221° |
| 2026-04-26 14:22 | 16.64653 | -16.01375 | 34893 ft | 430 kts | 221° |
| 2026-04-26 14:23 | 16.59778 | -16.05008 | 34901 ft | 431 kts | 221° |
| 2026-04-26 14:23 | 16.54892 | -16.08649 | 34915 ft | 432 kts | 221° |
| 2026-04-26 14:24 | 16.50000 | -16.12297 | 34923 ft | 432 kts | 221° |
| 2026-04-26 14:24 | 16.45101 | -16.15935 | 34927 ft | 432 kts | 221° |
| 2026-04-26 14:25 | 16.40231 | -16.19552 | 34905 ft | 432 kts | 221° |
| 2026-04-26 14:25 | 16.35314 | -16.23193 | 34926 ft | 433 kts | 221° |
| 2026-04-26 14:26 | 16.30368 | -16.26801 | 34925 ft | 438 kts | 215° |
| 2026-04-26 14:26 | 16.27524 | -16.28027 | 34918 ft | 451 kts | 200° |
| 2026-04-26 14:26 | 16.24368 | -16.28395 | 34919 ft | 464 kts | 186° |
| 2026-04-26 14:27 | 16.17885 | -16.28278 | 34922 ft | 467 kts | 186° |
| 2026-04-26 14:27 | 16.11385 | -16.28097 | 34927 ft | 467 kts | 186° |
| 2026-04-26 14:28 | 16.04880 | -16.27933 | 34915 ft | 468 kts | 186° |
| 2026-04-26 14:28 | 15.98404 | -16.28062 | 34920 ft | 464 kts | 190° |
| 2026-04-26 14:29 | 15.92007 | -16.28586 | 34921 ft | 463 kts | 192° |
| 2026-04-26 14:29 | 15.85574 | -16.29144 | 34929 ft | 464 kts | 191° |
| 2026-04-26 14:30 | 15.79111 | -16.29598 | 34935 ft | 465 kts | 190° |
| 2026-04-26 14:30 | 15.72648 | -16.30001 | 34942 ft | 466 kts | 190° |
| 2026-04-26 14:31 | 15.66174 | -16.30412 | 34920 ft | 466 kts | 190° |
| 2026-04-26 14:31 | 15.59691 | -16.30847 | 34923 ft | 467 kts | 190° |
| 2026-04-26 14:32 | 15.53192 | -16.31284 | 34929 ft | 468 kts | 190° |
| 2026-04-26 14:32 | 15.46692 | -16.31716 | 34936 ft | 468 kts | 190° |
| 2026-04-26 14:33 | 15.40180 | -16.32135 | 34933 ft | 468 kts | 190° |
| 2026-04-26 14:33 | 15.33671 | -16.32557 | 34919 ft | 469 kts | 189° |
| 2026-04-26 14:34 | 15.27155 | -16.32985 | 34917 ft | 469 kts | 189° |
| 2026-04-26 14:34 | 15.20682 | -16.33419 | 34921 ft | 469 kts | 190° |
| 2026-04-26 14:35 | 15.14158 | -16.33859 | 34921 ft | 470 kts | 189° |
| 2026-04-26 14:35 | 15.07629 | -16.34295 | 34925 ft | 470 kts | 189° |
| 2026-04-26 14:36 | 15.01102 | -16.34723 | 34912 ft | 470 kts | 189° |
| 2026-04-26 14:36 | 14.94569 | -16.35152 | 34919 ft | 471 kts | 189° |
| 2026-04-26 14:37 | 14.88019 | -16.35583 | 34921 ft | 471 kts | 189° |
| 2026-04-26 14:37 | 14.81474 | -16.36018 | 34921 ft | 471 kts | 189° |
| 2026-04-26 14:38 | 14.74967 | -16.36451 | 34920 ft | 471 kts | 189° |
| 2026-04-26 14:38 | 14.68420 | -16.36889 | 34671 ft | 471 kts | 189° |
| 2026-04-26 14:38 | 14.66208 | -16.37036 | 34517 ft | 472 kts | 188° |
| 2026-04-26 14:39 | 14.61865 | -16.37322 | 34210 ft | 473 kts | 188° |
| 2026-04-26 14:39 | 14.58569 | -16.37536 | 33986 ft | 475 kts | 188° |
| 2026-04-26 14:39 | 14.55273 | -16.37747 | 33636 ft | 475 kts | 188° |
| 2026-04-26 14:39 | 14.51967 | -16.37959 | 32763 ft | 478 kts | 188° |
| 2026-04-26 14:40 | 14.48636 | -16.38172 | 31895 ft | 482 kts | 188° |
| 2026-04-26 14:40 | 14.45273 | -16.38393 | 30956 ft | 487 kts | 188° |
| 2026-04-26 14:40 | 14.41873 | -16.38617 | 30000 ft | 493 kts | 188° |
| 2026-04-26 14:40 | 14.38432 | -16.38842 | 28877 ft | 498 kts | 188° |
| 2026-04-26 14:41 | 14.34966 | -16.39067 | 27807 ft | 500 kts | 187° |
| 2026-04-26 14:41 | 14.31486 | -16.39291 | 26743 ft | 501 kts | 187° |
| 2026-04-26 14:41 | 14.28010 | -16.39512 | 25740 ft | 501 kts | 187° |
| 2026-04-26 14:41 | 14.24524 | -16.39733 | 24736 ft | 501 kts | 186° |
| 2026-04-26 14:42 | 14.21087 | -16.39949 | 23570 ft | 485 kts | 186° |
| 2026-04-26 14:42 | 14.17716 | -16.40165 | 22357 ft | 486 kts | 186° |
| 2026-04-26 14:42 | 14.14363 | -16.40381 | 21494 ft | 481 kts | 186° |
| 2026-04-26 14:42 | 14.11048 | -16.40594 | 20752 ft | 474 kts | 186° |
| 2026-04-26 14:43 | 14.07756 | -16.40802 | 19926 ft | 471 kts | 186° |
| 2026-04-26 14:43 | 14.04508 | -16.41008 | 19044 ft | 468 kts | 186° |
| 2026-04-26 14:43 | 14.01279 | -16.41217 | 18449 ft | 460 kts | 186° |
| 2026-04-26 14:43 | 13.98099 | -16.41422 | 17657 ft | 455 kts | 186° |
| 2026-04-26 14:44 | 13.94988 | -16.41624 | 16891 ft | 449 kts | 186° |
| 2026-04-26 14:44 | 13.91893 | -16.41823 | 16165 ft | 443 kts | 185° |
| 2026-04-26 14:44 | 13.89830 | -16.41955 | 15687 ft | 438 kts | 185° |
| 2026-04-26 14:44 | 13.85843 | -16.42211 | 15034 ft | 425 kts | 185° |
| 2026-04-26 14:45 | 13.82914 | -16.42399 | 14288 ft | 422 kts | 185° |
| 2026-04-26 14:45 | 13.81926 | -16.42463 | 14045 ft | 421 kts | 185° |
| 2026-04-26 14:45 | 13.78065 | -16.42717 | 12973 ft | 408 kts | 185° |
| 2026-04-26 14:45 | 13.75268 | -16.42901 | 12048 ft | 398 kts | 185° |
| 2026-04-26 14:46 | 13.72568 | -16.43075 | 11668 ft | 375 kts | 184° |
| 2026-04-26 14:46 | 13.70104 | -16.43230 | 11469 ft | 343 kts | 185° |
| 2026-04-26 14:46 | 13.67821 | -16.43374 | 11250 ft | 313 kts | 185° |
| 2026-04-26 14:46 | 13.65717 | -16.43507 | 11032 ft | 297 kts | 185° |
| 2026-04-26 14:47 | 13.63679 | -16.43637 | 10796 ft | 290 kts | 184° |
| 2026-04-26 14:47 | 13.61673 | -16.43766 | 10474 ft | 288 kts | 185° |
| 2026-04-26 14:47 | 13.59686 | -16.43894 | 10180 ft | 284 kts | 184° |
| 2026-04-26 14:47 | 13.57711 | -16.44023 | 9806 ft | 284 kts | 184° |
| 2026-04-26 14:48 | 13.55742 | -16.44153 | 9437 ft | 283 kts | 184° |
| 2026-04-26 14:48 | 13.53773 | -16.44281 | 8992 ft | 284 kts | 184° |
| 2026-04-26 14:48 | 13.51800 | -16.44410 | 8614 ft | 284 kts | 184° |
| 2026-04-26 14:48 | 13.49827 | -16.44538 | 8239 ft | 283 kts | 184° |
| 2026-04-26 14:49 | 13.47857 | -16.44665 | 7852 ft | 283 kts | 184° |
| 2026-04-26 14:49 | 13.45883 | -16.44790 | 7477 ft | 283 kts | 184° |
| 2026-04-26 14:49 | 13.43917 | -16.44914 | 7107 ft | 284 kts | 184° |
| 2026-04-26 14:49 | 13.41970 | -16.45038 | 6735 ft | 284 kts | 184° |
| 2026-04-26 14:50 | 13.39993 | -16.45163 | 6377 ft | 284 kts | 184° |
| 2026-04-26 14:50 | 13.38016 | -16.45209 | 5992 ft | 284 kts | 180° |
| 2026-04-26 14:50 | 13.36039 | -16.45121 | 5619 ft | 285 kts | 175° |
| 2026-04-26 14:50 | 13.34068 | -16.44992 | 5301 ft | 283 kts | 180° |
| 2026-04-26 14:51 | 13.32101 | -16.45062 | 4924 ft | 283 kts | 186° |
| 2026-04-26 14:51 | 13.30154 | -16.45335 | 4590 ft | 282 kts | 191° |
| 2026-04-26 14:51 | 13.28243 | -16.45801 | 4192 ft | 282 kts | 196° |
| 2026-04-26 14:51 | 13.26392 | -16.46453 | 3843 ft | 281 kts | 202° |
| 2026-04-26 14:52 | 13.24652 | -16.47274 | 3703 ft | 267 kts | 208° |
| 2026-04-26 14:52 | 13.23163 | -16.48259 | 3506 ft | 245 kts | 229° |
| 2026-04-26 14:52 | 13.22402 | -16.49711 | 3248 ft | 225 kts | 261° |
| 2026-04-26 14:52 | 13.22443 | -16.51270 | 3053 ft | 217 kts | 289° |
| 2026-04-26 14:53 | 13.23163 | -16.52596 | 2820 ft | 212 kts | 313° |
| 2026-04-26 14:53 | 13.24114 | -16.53723 | 2586 ft | 205 kts | 314° |
| 2026-04-26 14:53 | 13.25029 | -16.54807 | 2314 ft | 197 kts | 313° |
| 2026-04-26 14:53 | 13.25904 | -16.55845 | 2056 ft | 188 kts | 311° |
| 2026-04-26 14:54 | 13.26734 | -16.56832 | 1814 ft | 177 kts | 310° |
| 2026-04-26 14:54 | 13.27492 | -16.57733 | 1632 ft | 156 kts | 309° |
| 2026-04-26 14:54 | 13.28170 | -16.58540 | 1408 ft | 145 kts | 309° |
| 2026-04-26 14:54 | 13.28825 | -16.59319 | 1224 ft | 144 kts | 309° |
| 2026-04-26 14:55 | 13.29474 | -16.60091 | 1044 ft | 142 kts | 311° |
| 2026-04-26 14:55 | 13.30123 | -16.60864 | 867 ft | 143 kts | 309° |
| 2026-04-26 14:55 | 13.30774 | -16.61638 | 688 ft | 143 kts | 308° |
| 2026-04-26 14:55 | 13.31420 | -16.62407 | 516 ft | 142 kts | 308° |
| 2026-04-26 14:56 | 13.32062 | -16.63177 | 336 ft | 142 kts | 308° |
| 2026-04-26 14:56 | 13.32705 | -16.63948 | 156 ft | 142 kts | 310° |
| 2026-04-26 14:56 | 13.33318 | -16.64673 | 92 ft | 123 kts | 310° |
| 2026-04-26 14:56 | 13.33774 | -16.65212 | 92 ft | 75 kts | 311° |
| 2026-04-26 14:57 | 13.34001 | -16.65485 | 91 ft | 29 kts | 312° |
| 2026-04-26 14:57 | 13.34097 | -16.65586 | 90 ft | 11 kts | 344° |
| 2026-04-26 14:57 | 13.34170 | -16.65538 | 90 ft | 13 kts | 40° |
| 2026-04-26 14:57 | 13.34229 | -16.65486 | 92 ft | 4 kts | 40° |
| 2026-04-26 14:58 | 13.34256 | -16.65462 | 91 ft | 6 kts | 40° |
| 2026-04-26 14:58 | 13.34292 | -16.65431 | 91 ft | 8 kts | 40° |
| 2026-04-26 14:58 | 13.34329 | -16.65398 | 95 ft | 7 kts | 39° |
| 2026-04-26 14:58 | 13.34329 | -16.65366 | 91 ft | 5 kts | 119° |
| 2026-04-26 14:59 | 13.34310 | -16.65341 | 91 ft | 3 kts | 130° |
| 2026-04-26 14:59 | 13.34306 | -16.65336 | 91 ft | 0 kts | 131° |